sensor_id;sensor_type;location;lat;lon;timestamp;P1;durP1;ratioP1;P2;durP2;ratioP2
3567;SDS011;1798;48.486;9.232;2023-06-24T00:01:35;19.10;;;10.30;;
3567;SDS011;1798;48.486;9.232;2023-06-24T00:04:03;18.73;;;9.60;;
3567;SDS011;1798;48.486;9.232;2023-06-24T00:06:30;18.40;;;9.33;;
3567;SDS011;1798;48.486;9.232;2023-06-24T00:08:58;19.23;;;11.20;;
3567;SDS011;1798;48.486;9.232;2023-06-24T00:11:27;17.23;;;11.23;;
3567;SDS011;1798;48.486;9.232;2023-06-24T00:13:54;19.43;;;10.77;;
3567;SDS011;1798;48.486;9.232;2023-06-24T00:16:21;17.73;;;8.60;;
3567;SDS011;1798;48.486;9.232;2023-06-24T00:18:53;14.20;;;8.60;;
3567;SDS011;1798;48.486;9.232;2023-06-24T00:21:23;13.50;;;8.60;;
3567;SDS011;1798;48.486;9.232;2023-06-24T00:23:54;15.87;;;8.70;;
3567;SDS011;1798;48.486;9.232;2023-06-24T00:26:23;19.63;;;7.80;;
3567;SDS011;1798;48.486;9.232;2023-06-24T00:28:50;17.93;;;8.93;;
3567;SDS011;1798;48.486;9.232;2023-06-24T00:31:17;15.10;;;8.97;;
3567;SDS011;1798;48.486;9.232;2023-06-24T00:33:44;19.90;;;8.80;;
3567;SDS011;1798;48.486;9.232;2023-06-24T00:36:11;12.83;;;7.77;;
3567;SDS011;1798;48.486;9.232;2023-06-24T00:38:38;16.40;;;8.57;;
3567;SDS011;1798;48.486;9.232;2023-06-24T00:41:05;16.20;;;7.97;;
3567;SDS011;1798;48.486;9.232;2023-06-24T00:43:34;17.30;;;10.47;;
3567;SDS011;1798;48.486;9.232;2023-06-24T00:46:01;14.37;;;8.40;;
3567;SDS011;1798;48.486;9.232;2023-06-24T00:48:28;14.57;;;8.10;;
3567;SDS011;1798;48.486;9.232;2023-06-24T00:50:56;17.10;;;9.20;;
3567;SDS011;1798;48.486;9.232;2023-06-24T00:53:23;14.90;;;8.03;;
3567;SDS011;1798;48.486;9.232;2023-06-24T00:55:50;11.37;;;7.50;;
3567;SDS011;1798;48.486;9.232;2023-06-24T00:58:17;28.47;;;10.40;;
3567;SDS011;1798;48.486;9.232;2023-06-24T01:00:47;15.03;;;7.97;;
3567;SDS011;1798;48.486;9.232;2023-06-24T01:03:22;16.30;;;7.90;;
3567;SDS011;1798;48.486;9.232;2023-06-24T01:05:50;18.13;;;8.20;;
3567;SDS011;1798;48.486;9.232;2023-06-24T01:08:17;13.17;;;7.40;;
3567;SDS011;1798;48.486;9.232;2023-06-24T01:10:47;14.83;;;7.60;;
3567;SDS011;1798;48.486;9.232;2023-06-24T01:13:14;14.00;;;7.80;;
3567;SDS011;1798;48.486;9.232;2023-06-24T01:15:41;14.10;;;7.20;;
3567;SDS011;1798;48.486;9.232;2023-06-24T01:18:10;13.50;;;7.50;;
3567;SDS011;1798;48.486;9.232;2023-06-24T01:20:41;16.67;;;8.13;;
3567;SDS011;1798;48.486;9.232;2023-06-24T01:26:21;15.63;;;8.50;;
3567;SDS011;1798;48.486;9.232;2023-06-24T01:29:04;17.17;;;8.30;;
3567;SDS011;1798;48.486;9.232;2023-06-24T01:31:42;13.20;;;7.70;;
3567;SDS011;1798;48.486;9.232;2023-06-24T01:34:15;13.60;;;8.53;;
3567;SDS011;1798;48.486;9.232;2023-06-24T01:36:47;15.47;;;7.70;;
3567;SDS011;1798;48.486;9.232;2023-06-24T01:39:17;22.03;;;7.33;;
3567;SDS011;1798;48.486;9.232;2023-06-24T01:41:47;17.00;;;8.83;;
3567;SDS011;1798;48.486;9.232;2023-06-24T01:44:20;15.70;;;8.70;;
3567;SDS011;1798;48.486;9.232;2023-06-24T01:46:48;14.47;;;8.10;;
3567;SDS011;1798;48.486;9.232;2023-06-24T01:49:16;14.50;;;7.80;;
3567;SDS011;1798;48.486;9.232;2023-06-24T01:51:44;23.57;;;9.00;;
3567;SDS011;1798;48.486;9.232;2023-06-24T01:54:13;15.30;;;7.83;;
3567;SDS011;1798;48.486;9.232;2023-06-24T01:56:44;14.80;;;8.13;;
3567;SDS011;1798;48.486;9.232;2023-06-24T01:59:13;17.30;;;8.97;;
3567;SDS011;1798;48.486;9.232;2023-06-24T02:01:40;13.67;;;8.37;;
3567;SDS011;1798;48.486;9.232;2023-06-24T02:04:09;16.30;;;8.33;;
3567;SDS011;1798;48.486;9.232;2023-06-24T02:06:39;13.43;;;8.23;;
3567;SDS011;1798;48.486;9.232;2023-06-24T02:09:07;16.30;;;8.27;;
3567;SDS011;1798;48.486;9.232;2023-06-24T02:11:34;13.47;;;7.83;;
3567;SDS011;1798;48.486;9.232;2023-06-24T02:14:03;18.80;;;9.30;;
3567;SDS011;1798;48.486;9.232;2023-06-24T02:16:31;19.87;;;8.40;;
3567;SDS011;1798;48.486;9.232;2023-06-24T02:18:59;13.13;;;8.00;;
3567;SDS011;1798;48.486;9.232;2023-06-24T02:21:28;13.97;;;7.73;;
3567;SDS011;1798;48.486;9.232;2023-06-24T02:23:55;12.57;;;7.90;;
3567;SDS011;1798;48.486;9.232;2023-06-24T02:26:22;16.90;;;7.60;;
3567;SDS011;1798;48.486;9.232;2023-06-24T02:28:50;18.83;;;7.80;;
3567;SDS011;1798;48.486;9.232;2023-06-24T02:31:18;13.07;;;7.73;;
3567;SDS011;1798;48.486;9.232;2023-06-24T02:33:46;15.60;;;8.43;;
3567;SDS011;1798;48.486;9.232;2023-06-24T02:36:13;14.17;;;8.53;;
3567;SDS011;1798;48.486;9.232;2023-06-24T02:38:41;13.63;;;7.80;;
3567;SDS011;1798;48.486;9.232;2023-06-24T02:41:08;10.93;;;7.53;;
3567;SDS011;1798;48.486;9.232;2023-06-24T02:43:35;18.80;;;7.10;;
3567;SDS011;1798;48.486;9.232;2023-06-24T02:46:02;12.90;;;7.40;;
3567;SDS011;1798;48.486;9.232;2023-06-24T02:48:30;18.50;;;7.83;;
3567;SDS011;1798;48.486;9.232;2023-06-24T02:50:58;13.60;;;7.30;;
3567;SDS011;1798;48.486;9.232;2023-06-24T02:53:25;12.90;;;7.50;;
3567;SDS011;1798;48.486;9.232;2023-06-24T02:55:54;13.03;;;6.97;;
3567;SDS011;1798;48.486;9.232;2023-06-24T02:58:21;21.10;;;7.23;;
3567;SDS011;1798;48.486;9.232;2023-06-24T03:00:49;14.97;;;8.70;;
3567;SDS011;1798;48.486;9.232;2023-06-24T03:03:16;20.07;;;8.23;;
3567;SDS011;1798;48.486;9.232;2023-06-24T03:05:43;16.63;;;8.23;;
3567;SDS011;1798;48.486;9.232;2023-06-24T03:08:13;12.73;;;7.30;;
3567;SDS011;1798;48.486;9.232;2023-06-24T03:10:40;18.73;;;7.37;;
3567;SDS011;1798;48.486;9.232;2023-06-24T03:13:08;14.00;;;7.30;;
3567;SDS011;1798;48.486;9.232;2023-06-24T03:15:35;13.30;;;7.70;;
3567;SDS011;1798;48.486;9.232;2023-06-24T03:18:02;13.80;;;7.20;;
3567;SDS011;1798;48.486;9.232;2023-06-24T03:20:29;13.40;;;7.40;;
3567;SDS011;1798;48.486;9.232;2023-06-24T03:23:03;14.53;;;7.97;;
3567;SDS011;1798;48.486;9.232;2023-06-24T03:25:31;13.33;;;6.90;;
3567;SDS011;1798;48.486;9.232;2023-06-24T03:27:57;13.17;;;6.53;;
3567;SDS011;1798;48.486;9.232;2023-06-24T03:30:27;31.80;;;8.43;;
3567;SDS011;1798;48.486;9.232;2023-06-24T03:32:54;14.33;;;7.70;;
3567;SDS011;1798;48.486;9.232;2023-06-24T03:35:20;15.23;;;6.97;;
3567;SDS011;1798;48.486;9.232;2023-06-24T03:37:47;24.90;;;6.10;;
3567;SDS011;1798;48.486;9.232;2023-06-24T03:40:14;19.47;;;7.13;;
3567;SDS011;1798;48.486;9.232;2023-06-24T03:42:40;12.53;;;6.40;;
3567;SDS011;1798;48.486;9.232;2023-06-24T03:45:07;12.80;;;7.53;;
3567;SDS011;1798;48.486;9.232;2023-06-24T03:47:35;12.33;;;7.40;;
3567;SDS011;1798;48.486;9.232;2023-06-24T03:50:04;13.73;;;7.73;;
3567;SDS011;1798;48.486;9.232;2023-06-24T03:52:31;13.17;;;7.60;;
3567;SDS011;1798;48.486;9.232;2023-06-24T03:54:58;13.73;;;7.90;;
3567;SDS011;1798;48.486;9.232;2023-06-24T03:57:26;12.27;;;8.00;;
3567;SDS011;1798;48.486;9.232;2023-06-24T03:59:53;10.13;;;6.50;;
3567;SDS011;1798;48.486;9.232;2023-06-24T04:02:19;22.03;;;7.30;;
3567;SDS011;1798;48.486;9.232;2023-06-24T04:04:48;12.90;;;7.77;;
3567;SDS011;1798;48.486;9.232;2023-06-24T04:07:16;11.00;;;6.37;;
3567;SDS011;1798;48.486;9.232;2023-06-24T04:09:51;14.43;;;8.00;;
3567;SDS011;1798;48.486;9.232;2023-06-24T04:12:19;12.60;;;7.40;;
3567;SDS011;1798;48.486;9.232;2023-06-24T04:14:46;13.30;;;7.57;;
3567;SDS011;1798;48.486;9.232;2023-06-24T04:17:13;12.90;;;6.97;;
3567;SDS011;1798;48.486;9.232;2023-06-24T04:19:39;29.93;;;6.83;;
3567;SDS011;1798;48.486;9.232;2023-06-24T04:22:08;16.07;;;7.80;;
3567;SDS011;1798;48.486;9.232;2023-06-24T04:24:35;11.93;;;7.10;;
3567;SDS011;1798;48.486;9.232;2023-06-24T04:27:02;13.30;;;7.50;;
3567;SDS011;1798;48.486;9.232;2023-06-24T04:29:28;16.87;;;7.73;;
3567;SDS011;1798;48.486;9.232;2023-06-24T04:31:55;21.00;;;13.37;;
3567;SDS011;1798;48.486;9.232;2023-06-24T04:34:22;53.17;;;35.47;;
3567;SDS011;1798;48.486;9.232;2023-06-24T04:36:48;49.90;;;31.63;;
3567;SDS011;1798;48.486;9.232;2023-06-24T04:39:16;48.17;;;33.20;;
3567;SDS011;1798;48.486;9.232;2023-06-24T04:41:44;53.03;;;36.47;;
3567;SDS011;1798;48.486;9.232;2023-06-24T04:44:11;37.97;;;24.13;;
3567;SDS011;1798;48.486;9.232;2023-06-24T04:46:38;31.27;;;20.23;;
3567;SDS011;1798;48.486;9.232;2023-06-24T04:49:05;26.63;;;17.17;;
3567;SDS011;1798;48.486;9.232;2023-06-24T04:51:31;19.17;;;12.63;;
3567;SDS011;1798;48.486;9.232;2023-06-24T04:53:58;16.20;;;10.80;;
3567;SDS011;1798;48.486;9.232;2023-06-24T04:56:27;14.00;;;8.77;;
3567;SDS011;1798;48.486;9.232;2023-06-24T04:58:53;16.27;;;9.57;;
3567;SDS011;1798;48.486;9.232;2023-06-24T05:01:21;18.90;;;9.60;;
3567;SDS011;1798;48.486;9.232;2023-06-24T05:03:48;22.60;;;10.40;;
3567;SDS011;1798;48.486;9.232;2023-06-24T05:06:15;15.97;;;8.90;;
3567;SDS011;1798;48.486;9.232;2023-06-24T05:08:42;16.60;;;9.97;;
3567;SDS011;1798;48.486;9.232;2023-06-24T05:11:08;26.30;;;9.70;;
3567;SDS011;1798;48.486;9.232;2023-06-24T05:13:36;18.67;;;10.60;;
3567;SDS011;1798;48.486;9.232;2023-06-24T05:16:03;15.43;;;9.70;;
3567;SDS011;1798;48.486;9.232;2023-06-24T05:18:31;15.57;;;9.30;;
3567;SDS011;1798;48.486;9.232;2023-06-24T05:20:57;17.47;;;9.00;;
3567;SDS011;1798;48.486;9.232;2023-06-24T05:23:24;20.03;;;11.33;;
3567;SDS011;1798;48.486;9.232;2023-06-24T05:25:51;15.47;;;8.83;;
3567;SDS011;1798;48.486;9.232;2023-06-24T05:28:17;15.30;;;10.77;;
3567;SDS011;1798;48.486;9.232;2023-06-24T05:30:46;16.00;;;10.70;;
3567;SDS011;1798;48.486;9.232;2023-06-24T05:33:13;13.27;;;9.00;;
3567;SDS011;1798;48.486;9.232;2023-06-24T05:35:40;15.90;;;10.50;;
3567;SDS011;1798;48.486;9.232;2023-06-24T05:38:07;20.57;;;10.90;;
3567;SDS011;1798;48.486;9.232;2023-06-24T05:40:33;18.80;;;9.90;;
3567;SDS011;1798;48.486;9.232;2023-06-24T05:43:00;17.10;;;8.70;;
3567;SDS011;1798;48.486;9.232;2023-06-24T05:45:28;16.50;;;9.43;;
3567;SDS011;1798;48.486;9.232;2023-06-24T05:47:56;18.23;;;9.97;;
3567;SDS011;1798;48.486;9.232;2023-06-24T05:50:23;24.30;;;11.00;;
3567;SDS011;1798;48.486;9.232;2023-06-24T05:52:49;18.03;;;11.07;;
3567;SDS011;1798;48.486;9.232;2023-06-24T05:55:16;16.73;;;9.33;;
3567;SDS011;1798;48.486;9.232;2023-06-24T05:57:43;17.27;;;10.23;;
3567;SDS011;1798;48.486;9.232;2023-06-24T06:00:10;18.80;;;11.30;;
3567;SDS011;1798;48.486;9.232;2023-06-24T06:02:37;17.80;;;11.10;;
3567;SDS011;1798;48.486;9.232;2023-06-24T06:05:06;16.77;;;10.10;;
3567;SDS011;1798;48.486;9.232;2023-06-24T06:07:33;21.80;;;10.83;;
3567;SDS011;1798;48.486;9.232;2023-06-24T06:10:02;16.73;;;10.00;;
3567;SDS011;1798;48.486;9.232;2023-06-24T06:12:29;28.07;;;10.90;;
3567;SDS011;1798;48.486;9.232;2023-06-24T06:14:56;17.60;;;10.10;;
3567;SDS011;1798;48.486;9.232;2023-06-24T06:17:23;16.30;;;10.00;;
3567;SDS011;1798;48.486;9.232;2023-06-24T06:19:49;39.47;;;12.50;;
3567;SDS011;1798;48.486;9.232;2023-06-24T06:22:17;15.67;;;8.73;;
3567;SDS011;1798;48.486;9.232;2023-06-24T06:24:44;23.73;;;9.00;;
3567;SDS011;1798;48.486;9.232;2023-06-24T06:27:10;14.37;;;8.03;;
3567;SDS011;1798;48.486;9.232;2023-06-24T06:29:37;15.07;;;8.83;;
3567;SDS011;1798;48.486;9.232;2023-06-24T06:32:04;14.33;;;9.17;;
3567;SDS011;1798;48.486;9.232;2023-06-24T06:34:31;22.03;;;9.20;;
3567;SDS011;1798;48.486;9.232;2023-06-24T06:36:58;19.50;;;9.33;;
3567;SDS011;1798;48.486;9.232;2023-06-24T06:39:26;18.80;;;9.50;;
3567;SDS011;1798;48.486;9.232;2023-06-24T06:41:53;19.20;;;9.20;;
3567;SDS011;1798;48.486;9.232;2023-06-24T06:44:20;18.23;;;9.67;;
3567;SDS011;1798;48.486;9.232;2023-06-24T06:46:46;18.43;;;8.03;;
3567;SDS011;1798;48.486;9.232;2023-06-24T06:49:13;15.13;;;8.10;;
3567;SDS011;1798;48.486;9.232;2023-06-24T06:51:40;14.10;;;8.73;;
3567;SDS011;1798;48.486;9.232;2023-06-24T06:54:06;13.90;;;8.93;;
3567;SDS011;1798;48.486;9.232;2023-06-24T06:56:34;16.07;;;9.63;;
3567;SDS011;1798;48.486;9.232;2023-06-24T06:59:01;16.83;;;7.77;;
3567;SDS011;1798;48.486;9.232;2023-06-24T07:01:27;13.73;;;8.93;;
3567;SDS011;1798;48.486;9.232;2023-06-24T07:03:54;13.73;;;8.43;;
3567;SDS011;1798;48.486;9.232;2023-06-24T07:06:21;17.20;;;9.13;;
3567;SDS011;1798;48.486;9.232;2023-06-24T07:08:48;13.33;;;7.23;;
3567;SDS011;1798;48.486;9.232;2023-06-24T07:11:15;15.67;;;7.33;;
3567;SDS011;1798;48.486;9.232;2023-06-24T07:13:43;17.57;;;8.50;;
3567;SDS011;1798;48.486;9.232;2023-06-24T07:16:11;14.13;;;7.70;;
3567;SDS011;1798;48.486;9.232;2023-06-24T07:18:37;14.50;;;8.27;;
3567;SDS011;1798;48.486;9.232;2023-06-24T07:21:04;14.80;;;7.63;;
3567;SDS011;1798;48.486;9.232;2023-06-24T07:23:31;15.30;;;8.50;;
3567;SDS011;1798;48.486;9.232;2023-06-24T07:25:58;13.77;;;7.77;;
3567;SDS011;1798;48.486;9.232;2023-06-24T07:28:24;12.03;;;6.67;;
3567;SDS011;1798;48.486;9.232;2023-06-24T07:30:53;19.57;;;7.90;;
3567;SDS011;1798;48.486;9.232;2023-06-24T07:33:19;109.47;;;10.03;;
3567;SDS011;1798;48.486;9.232;2023-06-24T07:35:46;93.93;;;9.13;;
3567;SDS011;1798;48.486;9.232;2023-06-24T07:38:13;31.27;;;7.10;;
3567;SDS011;1798;48.486;9.232;2023-06-24T07:40:40;24.73;;;7.60;;
3567;SDS011;1798;48.486;9.232;2023-06-24T07:43:07;14.00;;;7.27;;
3567;SDS011;1798;48.486;9.232;2023-06-24T07:45:34;18.77;;;6.40;;
3567;SDS011;1798;48.486;9.232;2023-06-24T07:48:02;14.93;;;6.57;;
3567;SDS011;1798;48.486;9.232;2023-06-24T07:50:30;12.20;;;6.53;;
3567;SDS011;1798;48.486;9.232;2023-06-24T07:52:57;16.53;;;6.20;;
3567;SDS011;1798;48.486;9.232;2023-06-24T07:55:23;15.53;;;7.97;;
3567;SDS011;1798;48.486;9.232;2023-06-24T07:57:50;14.17;;;6.50;;
3567;SDS011;1798;48.486;9.232;2023-06-24T08:00:17;11.77;;;6.93;;
3567;SDS011;1798;48.486;9.232;2023-06-24T08:02:44;16.20;;;7.30;;
3567;SDS011;1798;48.486;9.232;2023-06-24T08:05:12;13.60;;;7.60;;
3567;SDS011;1798;48.486;9.232;2023-06-24T08:07:39;13.80;;;6.83;;
3567;SDS011;1798;48.486;9.232;2023-06-24T08:10:06;12.70;;;6.60;;
3567;SDS011;1798;48.486;9.232;2023-06-24T08:12:33;15.57;;;7.63;;
3567;SDS011;1798;48.486;9.232;2023-06-24T08:15:00;12.30;;;7.03;;
3567;SDS011;1798;48.486;9.232;2023-06-24T08:17:27;14.30;;;7.43;;
3567;SDS011;1798;48.486;9.232;2023-06-24T08:19:53;12.90;;;6.30;;
3567;SDS011;1798;48.486;9.232;2023-06-24T08:22:21;13.87;;;8.17;;
3567;SDS011;1798;48.486;9.232;2023-06-24T08:24:48;16.60;;;6.27;;
3567;SDS011;1798;48.486;9.232;2023-06-24T08:27:24;19.67;;;8.37;;
3567;SDS011;1798;48.486;9.232;2023-06-24T08:33:32;21.57;;;6.90;;
3567;SDS011;1798;48.486;9.232;2023-06-24T08:36:02;14.03;;;7.27;;
3567;SDS011;1798;48.486;9.232;2023-06-24T08:38:30;17.33;;;7.80;;
3567;SDS011;1798;48.486;9.232;2023-06-24T08:40:57;22.67;;;7.37;;
3567;SDS011;1798;48.486;9.232;2023-06-24T08:43:24;11.33;;;6.50;;
3567;SDS011;1798;48.486;9.232;2023-06-24T08:45:51;14.73;;;7.50;;
3567;SDS011;1798;48.486;9.232;2023-06-24T08:51:07;16.10;;;6.90;;
3567;SDS011;1798;48.486;9.232;2023-06-24T08:53:36;12.17;;;6.40;;
3567;SDS011;1798;48.486;9.232;2023-06-24T08:56:04;16.67;;;7.90;;
3567;SDS011;1798;48.486;9.232;2023-06-24T08:58:31;16.97;;;7.40;;
3567;SDS011;1798;48.486;9.232;2023-06-24T09:00:57;13.13;;;7.80;;
3567;SDS011;1798;48.486;9.232;2023-06-24T09:03:24;14.33;;;7.17;;
3567;SDS011;1798;48.486;9.232;2023-06-24T09:05:51;17.87;;;7.30;;
3567;SDS011;1798;48.486;9.232;2023-06-24T09:08:17;13.30;;;8.00;;
3567;SDS011;1798;48.486;9.232;2023-06-24T09:10:52;12.43;;;6.70;;
3567;SDS011;1798;48.486;9.232;2023-06-24T09:13:19;13.83;;;7.37;;
3567;SDS011;1798;48.486;9.232;2023-06-24T09:15:48;18.33;;;7.70;;
3567;SDS011;1798;48.486;9.232;2023-06-24T09:18:15;12.23;;;7.50;;
3567;SDS011;1798;48.486;9.232;2023-06-24T09:20:42;17.30;;;8.30;;
3567;SDS011;1798;48.486;9.232;2023-06-24T09:23:10;11.97;;;7.50;;
3567;SDS011;1798;48.486;9.232;2023-06-24T09:25:37;13.43;;;8.27;;
3567;SDS011;1798;48.486;9.232;2023-06-24T09:28:05;12.20;;;6.90;;
3567;SDS011;1798;48.486;9.232;2023-06-24T09:30:32;11.10;;;6.47;;
3567;SDS011;1798;48.486;9.232;2023-06-24T09:32:58;15.13;;;6.10;;
3567;SDS011;1798;48.486;9.232;2023-06-24T09:35:25;14.93;;;7.73;;
3567;SDS011;1798;48.486;9.232;2023-06-24T09:37:53;24.30;;;8.17;;
3567;SDS011;1798;48.486;9.232;2023-06-24T09:40:20;14.03;;;6.30;;
3567;SDS011;1798;48.486;9.232;2023-06-24T09:42:51;20.73;;;6.80;;
3567;SDS011;1798;48.486;9.232;2023-06-24T09:45:20;15.03;;;6.53;;
3567;SDS011;1798;48.486;9.232;2023-06-24T09:47:48;16.57;;;6.20;;
3567;SDS011;1798;48.486;9.232;2023-06-24T09:50:15;13.20;;;7.10;;
3567;SDS011;1798;48.486;9.232;2023-06-24T09:52:42;15.17;;;7.40;;
3567;SDS011;1798;48.486;9.232;2023-06-24T09:55:09;13.20;;;6.43;;
3567;SDS011;1798;48.486;9.232;2023-06-24T09:57:36;11.33;;;6.50;;
3567;SDS011;1798;48.486;9.232;2023-06-24T10:00:04;12.17;;;6.13;;
3567;SDS011;1798;48.486;9.232;2023-06-24T10:02:33;14.90;;;6.00;;
3567;SDS011;1798;48.486;9.232;2023-06-24T10:05:00;12.80;;;6.40;;
3567;SDS011;1798;48.486;9.232;2023-06-24T10:07:27;18.77;;;6.80;;
3567;SDS011;1798;48.486;9.232;2023-06-24T10:09:55;11.70;;;6.50;;
3567;SDS011;1798;48.486;9.232;2023-06-24T10:12:22;13.30;;;6.80;;
3567;SDS011;1798;48.486;9.232;2023-06-24T10:14:51;15.40;;;7.17;;
3567;SDS011;1798;48.486;9.232;2023-06-24T10:17:18;10.03;;;5.90;;
3567;SDS011;1798;48.486;9.232;2023-06-24T10:19:46;11.37;;;6.50;;
3567;SDS011;1798;48.486;9.232;2023-06-24T10:22:13;9.40;;;5.23;;
3567;SDS011;1798;48.486;9.232;2023-06-24T10:24:40;9.63;;;5.40;;
3567;SDS011;1798;48.486;9.232;2023-06-24T10:27:13;11.33;;;6.30;;
3567;SDS011;1798;48.486;9.232;2023-06-24T10:29:44;9.70;;;6.00;;
3567;SDS011;1798;48.486;9.232;2023-06-24T10:32:11;17.27;;;6.37;;
3567;SDS011;1798;48.486;9.232;2023-06-24T10:34:41;9.20;;;5.60;;
3567;SDS011;1798;48.486;9.232;2023-06-24T10:37:10;16.53;;;6.73;;
3567;SDS011;1798;48.486;9.232;2023-06-24T10:39:45;14.00;;;6.30;;
3567;SDS011;1798;48.486;9.232;2023-06-24T10:42:29;11.20;;;6.77;;
3567;SDS011;1798;48.486;9.232;2023-06-24T10:45:19;13.47;;;6.10;;
3567;SDS011;1798;48.486;9.232;2023-06-24T10:47:47;20.43;;;5.40;;
3567;SDS011;1798;48.486;9.232;2023-06-24T10:50:15;14.50;;;5.93;;
3567;SDS011;1798;48.486;9.232;2023-06-24T10:52:44;14.90;;;6.80;;
3567;SDS011;1798;48.486;9.232;2023-06-24T10:55:13;11.93;;;6.20;;
3567;SDS011;1798;48.486;9.232;2023-06-24T10:57:40;11.80;;;6.07;;
3567;SDS011;1798;48.486;9.232;2023-06-24T11:00:07;9.80;;;5.50;;
3567;SDS011;1798;48.486;9.232;2023-06-24T11:02:35;15.20;;;6.20;;
3567;SDS011;1798;48.486;9.232;2023-06-24T11:05:03;10.00;;;6.67;;
3567;SDS011;1798;48.486;9.232;2023-06-24T11:07:30;10.77;;;7.10;;
3567;SDS011;1798;48.486;9.232;2023-06-24T11:10:02;9.00;;;5.70;;
3567;SDS011;1798;48.486;9.232;2023-06-24T11:12:31;33.10;;;7.27;;
3567;SDS011;1798;48.486;9.232;2023-06-24T11:14:59;9.50;;;6.20;;
3567;SDS011;1798;48.486;9.232;2023-06-24T11:17:27;12.83;;;7.07;;
3567;SDS011;1798;48.486;9.232;2023-06-24T11:19:54;12.00;;;5.80;;
3567;SDS011;1798;48.486;9.232;2023-06-24T11:22:21;9.17;;;5.20;;
3567;SDS011;1798;48.486;9.232;2023-06-24T11:24:49;10.40;;;6.47;;
3567;SDS011;1798;48.486;9.232;2023-06-24T11:27:19;11.07;;;5.67;;
3567;SDS011;1798;48.486;9.232;2023-06-24T11:29:51;13.90;;;6.77;;
3567;SDS011;1798;48.486;9.232;2023-06-24T11:32:18;14.63;;;6.67;;
3567;SDS011;1798;48.486;9.232;2023-06-24T11:34:45;15.50;;;7.40;;
3567;SDS011;1798;48.486;9.232;2023-06-24T11:37:13;10.30;;;5.87;;
3567;SDS011;1798;48.486;9.232;2023-06-24T11:39:41;16.33;;;6.90;;
3567;SDS011;1798;48.486;9.232;2023-06-24T11:42:09;13.60;;;6.13;;
3567;SDS011;1798;48.486;9.232;2023-06-24T11:44:41;13.73;;;6.23;;
3567;SDS011;1798;48.486;9.232;2023-06-24T11:47:09;11.20;;;6.40;;
3567;SDS011;1798;48.486;9.232;2023-06-24T11:49:50;10.50;;;6.10;;
3567;SDS011;1798;48.486;9.232;2023-06-24T11:52:17;15.13;;;6.60;;
3567;SDS011;1798;48.486;9.232;2023-06-24T11:54:44;13.40;;;6.87;;
3567;SDS011;1798;48.486;9.232;2023-06-24T11:57:12;9.90;;;5.97;;
3567;SDS011;1798;48.486;9.232;2023-06-24T11:59:38;14.23;;;6.70;;
3567;SDS011;1798;48.486;9.232;2023-06-24T12:02:07;15.10;;;6.90;;
3567;SDS011;1798;48.486;9.232;2023-06-24T12:04:43;14.03;;;6.70;;
3567;SDS011;1798;48.486;9.232;2023-06-24T12:07:10;9.60;;;6.00;;
3567;SDS011;1798;48.486;9.232;2023-06-24T12:09:37;15.27;;;6.23;;
3567;SDS011;1798;48.486;9.232;2023-06-24T12:12:04;10.30;;;6.27;;
3567;SDS011;1798;48.486;9.232;2023-06-24T12:14:32;9.07;;;5.70;;
3567;SDS011;1798;48.486;9.232;2023-06-24T12:16:58;11.07;;;6.07;;
3567;SDS011;1798;48.486;9.232;2023-06-24T12:19:27;11.23;;;6.23;;
3567;SDS011;1798;48.486;9.232;2023-06-24T12:21:54;9.10;;;5.60;;
3567;SDS011;1798;48.486;9.232;2023-06-24T12:24:21;12.40;;;6.47;;
3567;SDS011;1798;48.486;9.232;2023-06-24T12:26:48;12.73;;;7.30;;
3567;SDS011;1798;48.486;9.232;2023-06-24T12:29:16;11.80;;;6.03;;
3567;SDS011;1798;48.486;9.232;2023-06-24T12:31:43;10.10;;;6.13;;
3567;SDS011;1798;48.486;9.232;2023-06-24T12:34:10;13.60;;;6.97;;
3567;SDS011;1798;48.486;9.232;2023-06-24T12:36:38;10.73;;;6.03;;
3567;SDS011;1798;48.486;9.232;2023-06-24T12:39:05;17.63;;;6.30;;
3567;SDS011;1798;48.486;9.232;2023-06-24T12:41:31;11.43;;;6.50;;
3567;SDS011;1798;48.486;9.232;2023-06-24T12:43:58;10.50;;;5.90;;
3567;SDS011;1798;48.486;9.232;2023-06-24T12:46:25;13.60;;;6.37;;
3567;SDS011;1798;48.486;9.232;2023-06-24T12:48:52;12.07;;;6.47;;
3567;SDS011;1798;48.486;9.232;2023-06-24T12:51:19;11.70;;;6.50;;
3567;SDS011;1798;48.486;9.232;2023-06-24T12:53:47;14.90;;;7.53;;
3567;SDS011;1798;48.486;9.232;2023-06-24T12:56:14;9.20;;;5.20;;
3567;SDS011;1798;48.486;9.232;2023-06-24T12:58:41;12.30;;;6.10;;
3567;SDS011;1798;48.486;9.232;2023-06-24T13:01:07;15.87;;;6.03;;
3567;SDS011;1798;48.486;9.232;2023-06-24T13:03:34;9.67;;;5.70;;
3567;SDS011;1798;48.486;9.232;2023-06-24T13:06:01;11.80;;;6.30;;
3567;SDS011;1798;48.486;9.232;2023-06-24T13:08:28;10.60;;;6.03;;
3567;SDS011;1798;48.486;9.232;2023-06-24T13:10:56;11.10;;;5.87;;
3567;SDS011;1798;48.486;9.232;2023-06-24T13:13:22;15.00;;;6.67;;
3567;SDS011;1798;48.486;9.232;2023-06-24T13:15:51;12.00;;;6.67;;
3567;SDS011;1798;48.486;9.232;2023-06-24T13:18:17;9.50;;;4.90;;
3567;SDS011;1798;48.486;9.232;2023-06-24T13:20:44;9.97;;;5.67;;
3567;SDS011;1798;48.486;9.232;2023-06-24T13:23:11;9.13;;;5.53;;
3567;SDS011;1798;48.486;9.232;2023-06-24T13:25:38;14.70;;;6.10;;
3567;SDS011;1798;48.486;9.232;2023-06-24T13:28:06;11.40;;;6.20;;
3567;SDS011;1798;48.486;9.232;2023-06-24T13:30:33;11.80;;;5.20;;
3567;SDS011;1798;48.486;9.232;2023-06-24T13:33:00;13.80;;;6.00;;
3567;SDS011;1798;48.486;9.232;2023-06-24T13:35:27;10.47;;;5.70;;
3567;SDS011;1798;48.486;9.232;2023-06-24T13:37:53;9.20;;;5.97;;
3567;SDS011;1798;48.486;9.232;2023-06-24T13:40:20;10.50;;;5.40;;
3567;SDS011;1798;48.486;9.232;2023-06-24T13:42:47;12.37;;;6.20;;
3567;SDS011;1798;48.486;9.232;2023-06-24T13:45:15;11.77;;;6.50;;
3567;SDS011;1798;48.486;9.232;2023-06-24T13:47:42;9.47;;;5.53;;
3567;SDS011;1798;48.486;9.232;2023-06-24T13:50:09;11.60;;;6.27;;
3567;SDS011;1798;48.486;9.232;2023-06-24T13:52:37;9.47;;;5.73;;
3567;SDS011;1798;48.486;9.232;2023-06-24T13:55:04;10.70;;;5.97;;
3567;SDS011;1798;48.486;9.232;2023-06-24T13:57:31;13.17;;;6.50;;
3567;SDS011;1798;48.486;9.232;2023-06-24T13:59:58;9.97;;;6.10;;
3567;SDS011;1798;48.486;9.232;2023-06-24T14:02:26;10.47;;;6.20;;
3567;SDS011;1798;48.486;9.232;2023-06-24T14:04:53;10.43;;;6.20;;
3567;SDS011;1798;48.486;9.232;2023-06-24T14:07:20;11.43;;;6.77;;
3567;SDS011;1798;48.486;9.232;2023-06-24T14:09:46;12.40;;;6.30;;
3567;SDS011;1798;48.486;9.232;2023-06-24T14:12:13;9.97;;;6.03;;
3567;SDS011;1798;48.486;9.232;2023-06-24T14:14:40;10.30;;;6.17;;
3567;SDS011;1798;48.486;9.232;2023-06-24T14:17:07;10.60;;;6.00;;
3567;SDS011;1798;48.486;9.232;2023-06-24T14:19:37;10.03;;;5.23;;
3567;SDS011;1798;48.486;9.232;2023-06-24T14:22:05;13.33;;;6.83;;
3567;SDS011;1798;48.486;9.232;2023-06-24T14:24:33;11.40;;;6.50;;
3567;SDS011;1798;48.486;9.232;2023-06-24T14:27:00;11.20;;;6.83;;
3567;SDS011;1798;48.486;9.232;2023-06-24T14:29:26;9.77;;;5.77;;
3567;SDS011;1798;48.486;9.232;2023-06-24T14:31:53;13.10;;;5.70;;
3567;SDS011;1798;48.486;9.232;2023-06-24T14:34:20;9.60;;;5.83;;
3567;SDS011;1798;48.486;9.232;2023-06-24T14:36:48;11.63;;;6.20;;
3567;SDS011;1798;48.486;9.232;2023-06-24T14:39:15;11.03;;;6.10;;
3567;SDS011;1798;48.486;9.232;2023-06-24T14:41:43;16.70;;;7.20;;
3567;SDS011;1798;48.486;9.232;2023-06-24T14:44:09;10.07;;;6.30;;
3567;SDS011;1798;48.486;9.232;2023-06-24T14:46:36;10.57;;;5.80;;
3567;SDS011;1798;48.486;9.232;2023-06-24T14:49:03;12.13;;;7.30;;
3567;SDS011;1798;48.486;9.232;2023-06-24T14:51:29;10.90;;;6.30;;
3567;SDS011;1798;48.486;9.232;2023-06-24T14:53:58;12.43;;;7.20;;
3567;SDS011;1798;48.486;9.232;2023-06-24T14:56:25;10.67;;;6.03;;
3567;SDS011;1798;48.486;9.232;2023-06-24T14:58:51;12.13;;;7.30;;
3567;SDS011;1798;48.486;9.232;2023-06-24T15:01:18;12.30;;;6.47;;
3567;SDS011;1798;48.486;9.232;2023-06-24T15:03:45;14.80;;;6.13;;
3567;SDS011;1798;48.486;9.232;2023-06-24T15:06:11;13.10;;;7.50;;
3567;SDS011;1798;48.486;9.232;2023-06-24T15:08:38;14.63;;;7.13;;
3567;SDS011;1798;48.486;9.232;2023-06-24T15:11:06;10.80;;;6.37;;
3567;SDS011;1798;48.486;9.232;2023-06-24T15:13:32;12.67;;;6.57;;